sensor_id;sensor_type;location;lat;lon;timestamp;pressure;altitude;pressure_sealevel;temperature;humidity
29433;BME280;16405;53.964;13.448;2022-12-24T00:00:38;100134.59;;;0.44;100.00
29433;BME280;16405;53.964;13.448;2022-12-24T00:03:04;100130.34;;;0.38;100.00
29433;BME280;16405;53.964;13.448;2022-12-24T00:05:30;100133.88;;;0.33;100.00
29433;BME280;16405;53.964;13.448;2022-12-24T00:07:56;100133.06;;;0.29;100.00
29433;BME280;16405;53.964;13.448;2022-12-24T00:10:22;100138.31;;;0.25;100.00
29433;BME280;16405;53.964;13.448;2022-12-24T00:12:48;100134.06;;;0.19;100.00
29433;BME280;16405;53.964;13.448;2022-12-24T00:15:16;100124.66;;;0.13;100.00
29433;BME280;16405;53.964;13.448;2022-12-24T00:17:44;100130.75;;;0.08;100.00
29433;BME280;16405;53.964;13.448;2022-12-24T00:20:10;100132.53;;;0.04;100.00
29433;BME280;16405;53.964;13.448;2022-12-24T00:22:36;100124.88;;;-0.02;100.00
29433;BME280;16405;53.964;13.448;2022-12-24T00:25:02;100121.44;;;-0.06;100.00
29433;BME280;16405;53.964;13.448;2022-12-24T00:27:27;100125.84;;;-0.12;100.00
29433;BME280;16405;53.964;13.448;2022-12-24T00:29:58;100119.03;;;-0.19;100.00
29433;BME280;16405;53.964;13.448;2022-12-24T00:32:24;100119.06;;;-0.23;100.00
29433;BME280;16405;53.964;13.448;2022-12-24T00:34:49;100123.44;;;-0.28;100.00
29433;BME280;16405;53.964;13.448;2022-12-24T00:37:15;100126.06;;;-0.31;100.00
29433;BME280;16405;53.964;13.448;2022-12-24T00:39:41;100122.66;;;-0.34;100.00
29433;BME280;16405;53.964;13.448;2022-12-24T00:42:07;100124.44;;;-0.38;100.00
29433;BME280;16405;53.964;13.448;2022-12-24T00:44:40;100128.75;;;-0.42;100.00
29433;BME280;16405;53.964;13.448;2022-12-24T00:47:05;100131.41;;;-0.46;100.00
29433;BME280;16405;53.964;13.448;2022-12-24T00:49:31;100128.03;;;-0.51;100.00
29433;BME280;16405;53.964;13.448;2022-12-24T00:51:57;100128.09;;;-0.56;100.00
29433;BME280;16405;53.964;13.448;2022-12-24T00:54:23;100134.09;;;-0.55;100.00
29433;BME280;16405;53.964;13.448;2022-12-24T00:56:50;100135.84;;;-0.56;100.00
29433;BME280;16405;53.964;13.448;2022-12-24T00:59:24;100142.81;;;-0.63;100.00
29433;BME280;16405;53.964;13.448;2022-12-24T01:01:50;100138.53;;;-0.67;100.00
29433;BME280;16405;53.964;13.448;2022-12-24T01:04:15;100139.44;;;-0.71;100.00
29433;BME280;16405;53.964;13.448;2022-12-24T01:06:59;100142.03;;;-0.74;100.00
29433;BME280;16405;53.964;13.448;2022-12-24T01:09:28;100147.25;;;-0.78;100.00
29433;BME280;16405;53.964;13.448;2022-12-24T01:11:54;100140.34;;;-0.76;100.00
29433;BME280;16405;53.964;13.448;2022-12-24T01:14:20;100145.50;;;-0.76;100.00
29433;BME280;16405;53.964;13.448;2022-12-24T01:16:46;100142.09;;;-0.80;100.00
29433;BME280;16405;53.964;13.448;2022-12-24T01:19:12;100144.66;;;-0.80;100.00
29433;BME280;16405;53.964;13.448;2022-12-24T01:21:42;100151.56;;;-0.79;100.00
29433;BME280;16405;53.964;13.448;2022-12-24T01:24:13;100152.41;;;-0.77;100.00
29433;BME280;16405;53.964;13.448;2022-12-24T01:26:41;100150.69;;;-0.75;100.00
29433;BME280;16405;53.964;13.448;2022-12-24T01:29:15;100156.69;;;-0.73;100.00
29433;BME280;16405;53.964;13.448;2022-12-24T01:31:40;100154.97;;;-0.72;100.00
29433;BME280;16405;53.964;13.448;2022-12-24T01:34:06;100166.97;;;-0.68;100.00
29433;BME280;16405;53.964;13.448;2022-12-24T01:36:35;100170.41;;;-0.66;100.00
29433;BME280;16405;53.964;13.448;2022-12-24T01:39:04;100169.53;;;-0.65;100.00
29433;BME280;16405;53.964;13.448;2022-12-24T01:41:31;100174.69;;;-0.64;100.00
29433;BME280;16405;53.964;13.448;2022-12-24T01:44:32;100176.44;;;-0.66;100.00
29433;BME280;16405;53.964;13.448;2022-12-24T01:49:32;100179.03;;;-0.67;100.00
29433;BME280;16405;53.964;13.448;2022-12-24T01:52:30;100182.44;;;-0.62;100.00
29433;BME280;16405;53.964;13.448;2022-12-24T01:55:11;100179.00;;;-0.63;100.00
29433;BME280;16405;53.964;13.448;2022-12-24T01:57:53;100192.75;;;-0.57;100.00
29433;BME280;16405;53.964;13.448;2022-12-24T02:00:24;100188.41;;;-0.55;100.00
29433;BME280;16405;53.964;13.448;2022-12-24T02:02:51;100186.66;;;-0.52;100.00
29433;BME280;16405;53.964;13.448;2022-12-24T02:05:31;100191.84;;;-0.53;100.00
29433;BME280;16405;53.964;13.448;2022-12-24T02:07:59;100193.53;;;-0.52;100.00
29433;BME280;16405;53.964;13.448;2022-12-24T02:10:30;100196.13;;;-0.51;100.00
29433;BME280;16405;53.964;13.448;2022-12-24T02:12:57;100196.13;;;-0.51;100.00
29433;BME280;16405;53.964;13.448;2022-12-24T02:15:24;100196.13;;;-0.51;100.00
29433;BME280;16405;53.964;13.448;2022-12-24T02:18:06;100195.28;;;-0.51;100.00
29433;BME280;16405;53.964;13.448;2022-12-24T02:24:17;100203.88;;;-0.49;100.00
29433;BME280;16405;53.964;13.448;2022-12-24T02:30:14;100210.69;;;-0.44;100.00
29433;BME280;16405;53.964;13.448;2022-12-24T02:32:58;100208.94;;;-0.40;100.00
29433;BME280;16405;53.964;13.448;2022-12-24T02:36:05;100206.31;;;-0.37;100.00
29433;BME280;16405;53.964;13.448;2022-12-24T02:41:48;100201.13;;;-0.32;100.00
29433;BME280;16405;53.964;13.448;2022-12-24T02:47:11;100207.94;;;-0.28;100.00
29433;BME280;16405;53.964;13.448;2022-12-24T02:49:41;100216.56;;;-0.26;100.00
29433;BME280;16405;53.964;13.448;2022-12-24T03:00:27;100223.47;;;-0.24;100.00
29433;BME280;16405;53.964;13.448;2022-12-24T03:03:24;100231.22;;;-0.24;100.00
29433;BME280;16405;53.964;13.448;2022-12-24T03:06:21;100237.25;;;-0.26;100.00
29433;BME280;16405;53.964;13.448;2022-12-24T03:11:37;100233.88;;;-0.30;100.00
29433;BME280;16405;53.964;13.448;2022-12-24T03:14:07;100239.03;;;-0.31;100.00
29433;BME280;16405;53.964;13.448;2022-12-24T03:16:38;100240.75;;;-0.29;100.00
29433;BME280;16405;53.964;13.448;2022-12-24T03:19:04;100239.91;;;-0.31;100.00
29433;BME280;16405;53.964;13.448;2022-12-24T03:21:34;100245.91;;;-0.29;100.00
29433;BME280;16405;53.964;13.448;2022-12-24T03:24:09;100242.47;;;-0.29;100.00
29433;BME280;16405;53.964;13.448;2022-12-24T03:26:36;100245.91;;;-0.26;100.00
29433;BME280;16405;53.964;13.448;2022-12-24T03:29:07;100250.19;;;-0.23;100.00
29433;BME280;16405;53.964;13.448;2022-12-24T03:31:46;100250.13;;;-0.20;100.00
29433;BME280;16405;53.964;13.448;2022-12-24T03:34:19;100251.88;;;-0.21;100.00
29433;BME280;16405;53.964;13.448;2022-12-24T03:36:46;100248.41;;;-0.19;100.00
29433;BME280;16405;53.964;13.448;2022-12-24T03:39:20;100255.31;;;-0.18;100.00
29433;BME280;16405;53.964;13.448;2022-12-24T03:41:46;100254.41;;;-0.14;100.00
29433;BME280;16405;53.964;13.448;2022-12-24T03:44:12;100254.41;;;-0.14;100.00
29433;BME280;16405;53.964;13.448;2022-12-24T03:46:38;100253.50;;;-0.12;100.00
29433;BME280;16405;53.964;13.448;2022-12-24T03:49:04;100252.66;;;-0.15;100.00
29433;BME280;16405;53.964;13.448;2022-12-24T03:51:35;100251.78;;;-0.11;100.00
29433;BME280;16405;53.964;13.448;2022-12-24T03:54:01;100253.50;;;-0.10;100.00
29433;BME280;16405;53.964;13.448;2022-12-24T03:56:26;100263.81;;;-0.07;100.00
29433;BME280;16405;53.964;13.448;2022-12-24T03:58:52;100265.53;;;-0.06;100.00
29433;BME280;16405;53.964;13.448;2022-12-24T04:01:18;100264.66;;;-0.07;100.00
29433;BME280;16405;53.964;13.448;2022-12-24T04:03:53;100267.25;;;-0.05;100.00
29433;BME280;16405;53.964;13.448;2022-12-24T04:06:19;100268.09;;;-0.05;100.00
29433;BME280;16405;53.964;13.448;2022-12-24T04:08:45;100268.94;;;-0.03;100.00
29433;BME280;16405;53.964;13.448;2022-12-24T04:11:13;100275.00;;;-0.02;100.00
29433;BME280;16405;53.964;13.448;2022-12-24T04:13:48;100275.84;;;-0.05;100.00
29433;BME280;16405;53.964;13.448;2022-12-24T04:16:15;100274.16;;;-0.04;100.00
29433;BME280;16405;53.964;13.448;2022-12-24T04:18:42;100275.00;;;-0.07;100.00
29433;BME280;16405;53.964;13.448;2022-12-24T04:21:16;100270.72;;;-0.09;100.00
29433;BME280;16405;53.964;13.448;2022-12-24T04:23:42;100270.78;;;-0.12;100.00
29433;BME280;16405;53.964;13.448;2022-12-24T04:26:12;100285.41;;;-0.11;100.00
29433;BME280;16405;53.964;13.448;2022-12-24T04:28:41;100288.88;;;-0.11;100.00
29433;BME280;16405;53.964;13.448;2022-12-24T04:31:13;100291.47;;;-0.12;100.00
29433;BME280;16405;53.964;13.448;2022-12-24T04:33:45;100294.91;;;-0.13;100.00
29433;BME280;16405;53.964;13.448;2022-12-24T04:36:14;100288.91;;;-0.14;100.00
29433;BME280;16405;53.964;13.448;2022-12-24T04:38:50;100288.06;;;-0.17;100.00
29433;BME280;16405;53.964;13.448;2022-12-24T04:41:21;100290.69;;;-0.19;100.00
29433;BME280;16405;53.964;13.448;2022-12-24T04:43:54;100293.28;;;-0.21;100.00
29433;BME280;16405;53.964;13.448;2022-12-24T04:46:24;100301.88;;;-0.20;100.00
29433;BME280;16405;53.964;13.448;2022-12-24T04:48:56;100294.16;;;-0.23;100.00
29433;BME280;16405;53.964;13.448;2022-12-24T04:51:24;100290.72;;;-0.24;100.00
29433;BME280;16405;53.964;13.448;2022-12-24T04:53:50;100298.50;;;-0.24;100.00
29433;BME280;16405;53.964;13.448;2022-12-24T04:56:27;100307.97;;;-0.24;100.00
29433;BME280;16405;53.964;13.448;2022-12-24T04:58:53;100301.09;;;-0.24;100.00
29433;BME280;16405;53.964;13.448;2022-12-24T05:01:29;100301.03;;;-0.22;100.00
29433;BME280;16405;53.964;13.448;2022-12-24T05:03:55;100295.91;;;-0.27;100.00
29433;BME280;16405;53.964;13.448;2022-12-24T05:06:32;100312.31;;;-0.28;100.00
29433;BME280;16405;53.964;13.448;2022-12-24T05:08:59;100309.69;;;-0.26;100.00
29433;BME280;16405;53.964;13.448;2022-12-24T05:11:25;100309.69;;;-0.23;100.00
29433;BME280;16405;53.964;13.448;2022-12-24T05:13:51;100309.66;;;-0.18;100.00
29433;BME280;16405;53.964;13.448;2022-12-24T05:16:20;100314.78;;;-0.14;100.00
29433;BME280;16405;53.964;13.448;2022-12-24T05:18:49;100314.75;;;-0.11;100.00
29433;BME280;16405;53.964;13.448;2022-12-24T05:21:19;100325.06;;;-0.08;100.00
29433;BME280;16405;53.964;13.448;2022-12-24T05:23:53;100327.63;;;-0.03;100.00
29433;BME280;16405;53.964;13.448;2022-12-24T05:26:53;100329.31;;;-0.01;100.00
29433;BME280;16405;53.964;13.448;2022-12-24T05:29:19;100336.19;;;0.02;100.00
29433;BME280;16405;53.964;13.448;2022-12-24T05:31:50;100343.94;;;0.07;100.00
29433;BME280;16405;53.964;13.448;2022-12-24T05:34:16;100346.47;;;0.11;100.00
29433;BME280;16405;53.964;13.448;2022-12-24T05:36:43;100354.19;;;0.13;100.00
29433;BME280;16405;53.964;13.448;2022-12-24T05:39:18;100347.31;;;0.13;100.00
29433;BME280;16405;53.964;13.448;2022-12-24T05:41:44;100347.31;;;0.13;100.00
29433;BME280;16405;53.964;13.448;2022-12-24T05:44:13;100355.88;;;0.17;100.00
29433;BME280;16405;53.964;13.448;2022-12-24T05:46:40;100355.88;;;0.18;100.00
29433;BME280;16405;53.964;13.448;2022-12-24T05:49:13;100353.31;;;0.17;100.00
29433;BME280;16405;53.964;13.448;2022-12-24T05:51:39;100362.81;;;0.15;100.00
29433;BME280;16405;53.964;13.448;2022-12-24T05:54:06;100383.53;;;0.15;100.00
29433;BME280;16405;53.964;13.448;2022-12-24T05:56:32;100379.25;;;0.14;100.00
29433;BME280;16405;53.964;13.448;2022-12-24T05:59:00;100383.53;;;0.15;100.00
29433;BME280;16405;53.964;13.448;2022-12-24T06:01:26;100393.03;;;0.17;100.00
29433;BME280;16405;53.964;13.448;2022-12-24T06:03:52;100389.59;;;0.15;100.00
29433;BME280;16405;53.964;13.448;2022-12-24T06:06:23;100388.75;;;0.10;100.00
29433;BME280;16405;53.964;13.448;2022-12-24T06:08:53;100389.63;;;0.09;100.00
29433;BME280;16405;53.964;13.448;2022-12-24T06:11:24;100396.56;;;0.07;100.00
29433;BME280;16405;53.964;13.448;2022-12-24T06:13:52;100398.31;;;0.05;100.00
29433;BME280;16405;53.964;13.448;2022-12-24T06:16:24;100400.88;;;0.05;100.00
29433;BME280;16405;53.964;13.448;2022-12-24T06:18:50;100394.81;;;0.08;100.00
29433;BME280;16405;53.964;13.448;2022-12-24T06:21:17;100397.41;;;0.06;100.00
29433;BME280;16405;53.964;13.448;2022-12-24T06:23:51;100406.06;;;0.02;100.00
29433;BME280;16405;53.964;13.448;2022-12-24T06:26:20;100410.41;;;0.03;100.00
29433;BME280;16405;53.964;13.448;2022-12-24T06:28:48;100415.63;;;0.00;100.00
29433;BME280;16405;53.964;13.448;2022-12-24T06:31:20;100414.72;;;-0.01;100.00
29433;BME280;16405;53.964;13.448;2022-12-24T06:33:48;100405.31;;;-0.06;100.00
29433;BME280;16405;53.964;13.448;2022-12-24T06:36:24;100407.91;;;-0.09;100.00
29433;BME280;16405;53.964;13.448;2022-12-24T06:38:51;100414.78;;;-0.07;100.00
29433;BME280;16405;53.964;13.448;2022-12-24T06:41:18;100421.69;;;-0.06;100.00
29433;BME280;16405;53.964;13.448;2022-12-24T06:43:46;100426.88;;;-0.04;100.00
29433;BME280;16405;53.964;13.448;2022-12-24T06:46:15;100433.78;;;-0.08;100.00
29433;BME280;16405;53.964;13.448;2022-12-24T06:48:42;100428.56;;;-0.05;100.00
29433;BME280;16405;53.964;13.448;2022-12-24T06:51:09;100441.53;;;-0.06;100.00
29433;BME280;16405;53.964;13.448;2022-12-24T06:53:35;100443.25;;;-0.05;100.00
29433;BME280;16405;53.964;13.448;2022-12-24T06:56:09;100454.47;;;-0.05;100.00
29433;BME280;16405;53.964;13.448;2022-12-24T06:58:35;100462.22;;;-0.02;100.00
29433;BME280;16405;53.964;13.448;2022-12-24T07:01:04;100468.25;;;0.01;100.00
29433;BME280;16405;53.964;13.448;2022-12-24T07:03:31;100469.09;;;0.01;100.00
29433;BME280;16405;53.964;13.448;2022-12-24T07:05:57;100488.06;;;0.02;100.00
29433;BME280;16405;53.964;13.448;2022-12-24T07:08:23;100497.56;;;0.03;100.00
29433;BME280;16405;53.964;13.448;2022-12-24T07:10:50;100500.13;;;0.06;100.00
29433;BME280;16405;53.964;13.448;2022-12-24T07:13:17;100496.69;;;0.04;100.00
29433;BME280;16405;53.964;13.448;2022-12-24T07:15:43;100494.97;;;0.01;100.00
29433;BME280;16405;53.964;13.448;2022-12-24T07:18:12;100492.38;;;-0.01;100.00
29433;BME280;16405;53.964;13.448;2022-12-24T07:20:41;100497.56;;;0.01;100.00
29433;BME280;16405;53.964;13.448;2022-12-24T07:23:07;100496.69;;;0.02;100.00
29433;BME280;16405;53.964;13.448;2022-12-24T07:25:33;100504.44;;;0.05;100.00
29433;BME280;16405;53.964;13.448;2022-12-24T07:27:59;100506.16;;;0.06;100.00
29433;BME280;16405;53.964;13.448;2022-12-24T07:30:27;100498.38;;;0.06;100.00
29433;BME280;16405;53.964;13.448;2022-12-24T07:32:55;100499.25;;;0.07;100.00
29433;BME280;16405;53.964;13.448;2022-12-24T07:35:21;100502.69;;;0.09;100.00
29433;BME280;16405;53.964;13.448;2022-12-24T07:37:46;100495.75;;;0.11;100.00
29433;BME280;16405;53.964;13.448;2022-12-24T07:40:12;100503.53;;;0.14;100.00
29433;BME280;16405;53.964;13.448;2022-12-24T07:42:38;100489.69;;;0.19;100.00
29433;BME280;16405;53.964;13.448;2022-12-24T07:45:04;100504.28;;;0.27;100.00
29433;BME280;16405;53.964;13.448;2022-12-24T07:47:36;100498.22;;;0.31;100.00
29433;BME280;16405;53.964;13.448;2022-12-24T07:50:04;100498.16;;;0.35;100.00
29433;BME280;16405;53.964;13.448;2022-12-24T07:52:30;100504.19;;;0.37;100.00
29433;BME280;16405;53.964;13.448;2022-12-24T07:54:56;100503.31;;;0.42;100.00
29433;BME280;16405;53.964;13.448;2022-12-24T07:57:22;100507.59;;;0.46;100.00
29433;BME280;16405;53.964;13.448;2022-12-24T07:59:47;100506.69;;;0.48;100.00
29433;BME280;16405;53.964;13.448;2022-12-24T08:02:13;100507.50;;;0.52;100.00
29433;BME280;16405;53.964;13.448;2022-12-24T08:04:39;100504.91;;;0.55;100.00
29433;BME280;16405;53.964;13.448;2022-12-24T08:07:06;100516.06;;;0.61;100.00
29433;BME280;16405;53.964;13.448;2022-12-24T08:09:37;100513.47;;;0.63;100.00
29433;BME280;16405;53.964;13.448;2022-12-24T08:12:08;100517.81;;;0.59;100.00
29433;BME280;16405;53.964;13.448;2022-12-24T08:14:34;100507.44;;;0.61;100.00
29433;BME280;16405;53.964;13.448;2022-12-24T08:17:00;100503.00;;;0.74;100.00
29433;BME280;16405;53.964;13.448;2022-12-24T08:19:46;100511.59;;;0.79;100.00
29433;BME280;16405;53.964;13.448;2022-12-24T08:22:19;100516.72;;;0.82;100.00
29433;BME280;16405;53.964;13.448;2022-12-24T08:24:45;100529.72;;;0.79;100.00
29433;BME280;16405;53.964;13.448;2022-12-24T08:27:16;100529.63;;;0.88;100.00
29433;BME280;16405;53.964;13.448;2022-12-24T08:29:45;100533.00;;;0.96;100.00
29433;BME280;16405;53.964;13.448;2022-12-24T08:32:10;100538.16;;;1.01;100.00
29433;BME280;16405;53.964;13.448;2022-12-24T08:34:36;100529.47;;;1.03;100.00
29433;BME280;16405;53.964;13.448;2022-12-24T08:37:02;100529.44;;;1.08;100.00
29433;BME280;16405;53.964;13.448;2022-12-24T08:39:28;100525.91;;;1.12;100.00
29433;BME280;16405;53.964;13.448;2022-12-24T08:41:58;100536.28;;;1.15;100.00
29433;BME280;16405;53.964;13.448;2022-12-24T08:44:24;100536.22;;;1.21;100.00
29433;BME280;16405;53.964;13.448;2022-12-24T08:46:50;100546.50;;;1.29;100.00
29433;BME280;16405;53.964;13.448;2022-12-24T08:49:15;100549.06;;;1.32;100.00
29433;BME280;16405;53.964;13.448;2022-12-24T08:51:41;100549.84;;;1.39;100.00
29433;BME280;16405;53.964;13.448;2022-12-24T08:54:07;100552.31;;;1.48;100.00
29433;BME280;16405;53.964;13.448;2022-12-24T08:56:38;100553.09;;;1.58;100.00
29433;BME280;16405;53.964;13.448;2022-12-24T08:59:04;100571.19;;;1.61;100.00
29433;BME280;16405;53.964;13.448;2022-12-24T09:01:30;100577.19;;;1.66;100.00
29433;BME280;16405;53.964;13.448;2022-12-24T09:03:56;100574.53;;;1.72;100.00
29433;BME280;16405;53.964;13.448;2022-12-24T09:06:22;100580.56;;;1.74;100.00
29433;BME280;16405;53.964;13.448;2022-12-24T09:08:53;100584.81;;;1.81;100.00
29433;BME280;16405;53.964;13.448;2022-12-24T09:11:19;100588.19;;;1.87;100.00
29433;BME280;16405;53.964;13.448;2022-12-24T09:13:48;100586.38;;;1.92;100.00
29433;BME280;16405;53.964;13.448;2022-12-24T09:16:14;100586.34;;;1.95;100.00
29433;BME280;16405;53.964;13.448;2022-12-24T09:18:41;100578.50;;;1.98;100.00
29433;BME280;16405;53.964;13.448;2022-12-24T09:21:10;100584.56;;;2.00;100.00
29433;BME280;16405;53.964;13.448;2022-12-24T09:23:41;100587.91;;;2.08;100.00
29433;BME280;16405;53.964;13.448;2022-12-24T09:26:30;100600.06;;;2.06;100.00
29433;BME280;16405;53.964;13.448;2022-12-24T09:29:01;100595.72;;;2.05;100.00
29433;BME280;16405;53.964;13.448;2022-12-24T09:31:27;100593.03;;;2.13;100.00
29433;BME280;16405;53.964;13.448;2022-12-24T09:33:54;100585.94;;;2.25;100.00
29433;BME280;16405;53.964;13.448;2022-12-24T09:36:20;100592.72;;;2.36;100.00
29433;BME280;16405;53.964;13.448;2022-12-24T09:38:52;100605.56;;;2.43;100.00
29433;BME280;16405;53.964;13.448;2022-12-24T09:47:42;100618.56;;;2.43;100.00
29433;BME280;16405;53.964;13.448;2022-12-24T09:50:51;100623.75;;;2.45;100.00
29433;BME280;16405;53.964;13.448;2022-12-24T09:53:57;100627.22;;;2.44;100.00
29433;BME280;16405;53.964;13.448;2022-12-24T09:56:43;100619.47;;;2.42;100.00
29433;BME280;16405;53.964;13.448;2022-12-24T09:59:20;100624.66;;;2.42;100.00
29433;BME280;16405;53.964;13.448;2022-12-24T10:01:50;100618.56;;;2.45;100.00
29433;BME280;16405;53.964;13.448;2022-12-24T10:04:25;100624.50;;;2.52;100.00
29433;BME280;16405;53.964;13.448;2022-12-24T10:10:41;100636.59;;;2.56;100.00
29433;BME280;16405;53.964;13.448;2022-12-24T10:26:03;100651.28;;;2.58;100.00
29433;BME280;16405;53.964;13.448;2022-12-24T10:29:02;100657.38;;;2.56;100.00
29433;BME280;16405;53.964;13.448;2022-12-24T10:32:21;100660.88;;;2.53;100.00
29433;BME280;16405;53.964;13.448;2022-12-24T10:34:50;100650.28;;;2.67;100.00
29433;BME280;16405;53.964;13.448;2022-12-24T10:37:29;100660.59;;;2.73;100.00
29433;BME280;16405;53.964;13.448;2022-12-24T10:40:02;100655.19;;;2.85;99.73
29433;BME280;16405;53.964;13.448;2022-12-24T10:42:40;100672.41;;;2.94;99.88
29433;BME280;16405;53.964;13.448;2022-12-24T10:45:22;100679.09;;;3.09;99.52
29433;BME280;16405;53.964;13.448;2022-12-24T10:47:56;100679.03;;;3.14;98.95
29433;BME280;16405;53.964;13.448;2022-12-24T10:50:42;100673.00;;;3.08;98.28
29433;BME280;16405;53.964;13.448;2022-12-24T10:53:36;100677.19;;;3.17;97.36
29433;BME280;16405;53.964;13.448;2022-12-24T10:56:09;100670.41;;;3.10;96.85
29433;BME280;16405;53.964;13.448;2022-12-24T10:58:50;100673.13;;;3.02;96.39
29433;BME280;16405;53.964;13.448;2022-12-24T11:01:20;100687.56;;;3.20;96.16
29433;BME280;16405;53.964;13.448;2022-12-24T11:04:12;100691.81;;;3.26;96.37
29433;BME280;16405;53.964;13.448;2022-12-24T11:06:57;100688.59;;;3.10;96.51
29433;BME280;16405;53.964;13.448;2022-12-24T11:09:35;100680.69;;;3.18;96.23
29433;BME280;16405;53.964;13.448;2022-12-24T11:13:14;100680.03;;;3.03;96.45
29433;BME280;16405;53.964;13.448;2022-12-24T11:15:31;100683.41;;;3.10;96.63
29433;BME280;16405;53.964;13.448;2022-12-24T11:18:05;100679.88;;;3.13;96.25
29433;BME280;16405;53.964;13.448;2022-12-24T11:20:48;100686.84;;;3.11;96.32
29433;BME280;16405;53.964;13.448;2022-12-24T11:23:18;100692.91;;;3.13;96.51
29433;BME280;16405;53.964;13.448;2022-12-24T11:25:53;100699.09;;;3.05;96.46
29433;BME280;16405;53.964;13.448;2022-12-24T11:28:33;100701.69;;;3.05;96.26
29433;BME280;16405;53.964;13.448;2022-12-24T11:31:19;100694.72;;;3.07;96.61
29433;BME280;16405;53.964;13.448;2022-12-24T11:33:53;100684.41;;;3.01;96.52
29433;BME280;16405;53.964;13.448;2022-12-24T11:36:22;100684.31;;;3.09;96.84
29433;BME280;16405;53.964;13.448;2022-12-24T11:38:56;100675.09;;;2.88;96.83
29433;BME280;16405;53.964;13.448;2022-12-24T11:41:24;100686.00;;;3.12;96.92
29433;BME280;16405;53.964;13.448;2022-12-24T11:44:00;100684.97;;;3.22;97.48
29433;BME280;16405;53.964;13.448;2022-12-24T11:46:41;100673.75;;;3.17;98.15
29433;BME280;16405;53.964;13.448;2022-12-24T11:51:40;100685.72;;;3.28;98.31
29433;BME280;16405;53.964;13.448;2022-12-24T11:54:25;100673.44;;;3.35;98.10
29433;BME280;16405;53.964;13.448;2022-12-24T11:56:56;100679.50;;;3.36;97.91
29433;BME280;16405;53.964;13.448;2022-12-24T11:59:37;100685.63;;;3.33;98.40
29433;BME280;16405;53.964;13.448;2022-12-24T12:02:32;100689.19;;;3.27;98.55
29433;BME280;16405;53.964;13.448;2022-12-24T12:05:09;100698.66;;;3.30;98.68
29433;BME280;16405;53.964;13.448;2022-12-24T12:07:38;100703.03;;;3.28;98.95
29433;BME280;16405;53.964;13.448;2022-12-24T12:10:29;100705.81;;;3.19;99.09
29433;BME280;16405;53.964;13.448;2022-12-24T12:13:04;100709.41;;;3.12;99.41
29433;BME280;16405;53.964;13.448;2022-12-24T12:16:11;100708.75;;;2.97;99.71
29433;BME280;16405;53.964;13.448;2022-12-24T12:18:40;100709.75;;;2.88;99.38
29433;BME280;16405;53.964;13.448;2022-12-24T12:21:19;100711.53;;;2.85;100.00
29433;BME280;16405;53.964;13.448;2022-12-24T12:23:56;100712.34;;;2.90;100.00
29433;BME280;16405;53.964;13.448;2022-12-24T12:26:25;100706.22;;;2.93;100.00
29433;BME280;16405;53.964;13.448;2022-12-24T12:29:05;100716.84;;;2.79;100.00
29433;BME280;16405;53.964;13.448;2022-12-24T12:34:14;100712.19;;;2.99;100.00
29433;BME280;16405;53.964;13.448;2022-12-24T12:36:51;100717.41;;;2.98;100.00
29433;BME280;16405;53.964;13.448;2022-12-24T12:39:21;100711.50;;;2.88;100.00
29433;BME280;16405;53.964;13.448;2022-12-24T12:44:59;100716.56;;;2.97;100.00
29433;BME280;16405;53.964;13.448;2022-12-24T12:47:45;100712.31;;;2.92;100.00
29433;BME280;16405;53.964;13.448;2022-12-24T12:53:29;100711.41;;;2.94;100.00
29433;BME280;16405;53.964;13.448;2022-12-24T12:59:02;100715.63;;;3.03;100.00
29433;BME280;16405;53.964;13.448;2022-12-24T13:21:31;100733.75;;;3.07;100.00
29433;BME280;16405;53.964;13.448;2022-12-24T13:24:16;100725.09;;;3.05;100.00
29433;BME280;16405;53.964;13.448;2022-12-24T13:30:05;100734.56;;;3.11;100.00
29433;BME280;16405;53.964;13.448;2022-12-24T13:32:49;100729.38;;;3.10;100.00
29433;BME280;16405;53.964;13.448;2022-12-24T13:37:51;100736.94;;;3.25;100.00
29433;BME280;16405;53.964;13.448;2022-12-24T13:40:28;100744.75;;;3.25;100.00
29433;BME280;16405;53.964;13.448;2022-12-24T13:50:55;100755.41;;;3.10;100.00
29433;BME280;16405;53.964;13.448;2022-12-24T13:53:45;100761.22;;;3.24;100.00
29433;BME280;16405;53.964;13.448;2022-12-24T13:59:10;100762.84;;;3.33;100.00
29433;BME280;16405;53.964;13.448;2022-12-24T14:01:39;100770.72;;;3.28;100.00
29433;BME280;16405;53.964;13.448;2022-12-24T14:04:08;100768.06;;;3.33;100.00
29433;BME280;16405;53.964;13.448;2022-12-24T14:06:39;100776.25;;;3.06;100.00
29433;BME280;16405;53.964;13.448;2022-12-24T14:09:11;100773.84;;;2.94;100.00
29433;BME280;16405;53.964;13.448;2022-12-24T14:14:37;100781.56;;;2.99;100.00
29433;BME280;16405;53.964;13.448;2022-12-24T14:17:26;100789.38;;;3.00;100.00
29433;BME280;16405;53.964;13.448;2022-12-24T14:20:01;100789.22;;;3.08;100.00
29433;BME280;16405;53.964;13.448;2022-12-24T14:22:38;100794.34;;;3.14;100.00
29433;BME280;16405;53.964;13.448;2022-12-24T14:25:17;100785.72;;;3.11;100.00
29433;BME280;16405;53.964;13.448;2022-12-24T14:27:52;100780.75;;;2.95;100.00
29433;BME280;16405;53.964;13.448;2022-12-24T14:30:29;100787.69;;;2.96;100.00
29433;BME280;16405;53.964;13.448;2022-12-24T14:32:55;100794.50;;;3.05;100.00
29433;BME280;16405;53.964;13.448;2022-12-24T14:35:34;100787.63;;;2.99;100.00
29433;BME280;16405;53.964;13.448;2022-12-24T14:38:13;100798.03;;;2.99;100.00
29433;BME280;16405;53.964;13.448;2022-12-24T14:47:04;100813.78;;;2.87;100.00
29433;BME280;16405;53.964;13.448;2022-12-24T14:52:41;100824.47;;;2.69;100.00
29433;BME280;16405;53.964;13.448;2022-12-24T14:55:55;100828.22;;;2.41;100.00